Pagrindinis puslapis
METAR-TAF:

METAR-TAF

Oro uostai :

Kiruna, Švedija

platuma: 67-49N, ilguma: 020-20E, Aukštis: 452 m

Dabartinis oras

Ataskaita buvo paskelbta 46 minutes, ne 10:50 UTC
Vėjas 15 kt iš Pietų/Pietvakarių
Temperatūra -2°C
Drėgmė 69%
Slėgis 1006 hPa
Matomumas 10 km arba daugiau
nėra debesų žemiau 1500 m ir nėra kamuolinių lietaus debesų

METAR: ESNQ 271050Z 20015KT CAVOK M02/M07 Q1006

Laikas: 12:36 (11:36 UTC)

Prognozė

Ataskaita buvo paskelbta 3 valandos ir 6 minutes, ne 08:30 UTC
Prognozė galioja nuo 27 metu 09 UTC su 27 metu 18 UTC
Vėjas 16 kt iš Pietų/Pietvakarių
Matomumas 10 km arba daugiau
nėra debesų žemiau 1500 m ir nėra kamuolinių lietaus debesų
Tikimybė 40%
nuo 27 metu 13 UTC su 27 metu 15 UTC
Matomumas: 2500 m
sniegas

TAF: ESNQ 270830Z 2709/2718 21016KT CAVOK PROB40 2713/2715 2500 -SN

Orai ataskaitas ir orų prognozės (METAR, TAF).

turimą stotys yra geltonos ir raudonos taškus žemėlapyje.

Perkelti pele per norėdami pamatyti stoties vardą.

Tada spustelėkite, norėdami matyti oro stebėjimo ir prognozės.

Norėdami pakeisti žemėlapį: spustelėkite ant žalios mygtukų su juodo kryžiaus žemyn,; žalią mygtuką su brūkšneliu, jei norite nutolinti; arba žalių rodyklių gretimoms žemėlapius.


METAR-TAF: